createdAt,value
2019-01-03T00:00:36.030Z,3.40
2019-01-03T00:05:44.615Z,3.80
2019-01-03T00:09:55.402Z,3.60
2019-01-03T00:14:03.439Z,2.37
2019-01-03T00:18:15.250Z,3.30
2019-01-03T00:22:23.132Z,2.60
2019-01-03T00:27:36.028Z,2.73
2019-01-03T00:31:45.611Z,3.20
2019-01-03T00:37:56.116Z,2.63
2019-01-03T00:42:06.968Z,2.77
2019-01-03T00:46:19.718Z,2.70
2019-01-03T00:50:27.532Z,2.60
2019-01-03T00:54:41.346Z,2.10
2019-01-03T00:59:46.847Z,3.13
2019-01-03T01:03:54.787Z,3.20
2019-01-03T01:08:03.500Z,2.70
2019-01-03T01:12:10.422Z,2.90
2019-01-03T01:17:16.011Z,2.40
2019-01-03T01:21:22.900Z,2.53
2019-01-03T01:25:33.833Z,2.50
2019-01-03T01:29:43.447Z,2.67
2019-01-03T01:34:08.552Z,3.27
2019-01-03T01:38:28.392Z,2.83
2019-01-03T01:42:39.234Z,2.60
2019-01-03T01:46:47.109Z,2.30
2019-01-03T01:51:31.452Z,3.20
2019-01-03T01:55:41.331Z,2.80
2019-01-03T02:00:49.903Z,2.03
2019-01-03T02:04:59.715Z,2.87
2019-01-03T02:09:07.647Z,2.93
2019-01-03T02:13:20.364Z,2.90
2019-01-03T02:17:58.680Z,2.63
2019-01-03T02:22:06.511Z,3.20
2019-01-03T02:26:31.433Z,2.50
2019-01-03T02:31:13.622Z,2.10
2019-01-03T02:36:20.027Z,2.57
2019-01-03T02:42:33.504Z,2.50
2019-01-03T02:46:53.356Z,3.30
2019-01-03T02:51:02.342Z,3.10
2019-01-03T02:55:19.325Z,3.47
2019-01-03T03:00:27.952Z,2.90
2019-01-03T03:04:40.729Z,3.43
2019-01-03T03:08:51.532Z,3.13
2019-01-03T03:12:59.427Z,2.73
2019-01-03T03:18:05.225Z,3.27
2019-01-03T03:24:16.693Z,3.30
2019-01-03T03:28:57.930Z,3.73
2019-01-03T03:33:05.876Z,3.17
2019-01-03T03:37:15.545Z,3.30
2019-01-03T03:41:23.265Z,3.50
2019-01-03T03:45:37.038Z,3.07
2019-01-03T03:49:48.803Z,3.37
2019-01-03T03:53:56.675Z,3.13
2019-01-03T04:00:09.167Z,3.17
2019-01-03T04:04:17.300Z,3.93
2019-01-03T04:09:22.991Z,3.50
2019-01-03T04:14:29.585Z,4.07
2019-01-03T04:18:37.650Z,3.47
2019-01-03T04:22:45.657Z,3.17
2019-01-03T04:27:55.085Z,4.70
2019-01-03T04:32:08.881Z,8.00
2019-01-03T04:36:32.665Z,6.10
2019-01-03T04:40:57.620Z,11.20
2019-01-03T04:47:10.015Z,7.50
2019-01-03T04:52:17.678Z,8.73
2019-01-03T04:56:32.626Z,8.27
2019-01-03T05:00:40.512Z,10.13
2019-01-03T05:04:53.405Z,9.33
2019-01-03T05:09:00.293Z,10.40
2019-01-03T05:13:13.225Z,11.13
2019-01-03T05:17:24.993Z,10.63
2019-01-03T05:21:32.992Z,10.43
2019-01-03T05:25:41.777Z,12.40
2019-01-03T05:29:49.736Z,14.87
2019-01-03T05:33:58.519Z,13.50
2019-01-03T05:38:06.274Z,12.40
2019-01-03T05:42:34.277Z,13.73
2019-01-03T05:46:42.274Z,15.37
2019-01-03T05:50:50.137Z,14.70
2019-01-03T05:57:01.709Z,15.90
2019-01-03T06:01:09.699Z,17.93
2019-01-03T06:05:17.467Z,16.70
2019-01-03T06:09:25.328Z,16.03
2019-01-03T06:14:33.131Z,15.80
2019-01-03T06:18:40.962Z,17.83
2019-01-03T06:22:49.008Z,19.27
2019-01-03T06:27:04.865Z,20.57
2019-01-03T06:31:45.054Z,21.33
2019-01-03T06:36:55.807Z,21.20
2019-01-03T06:41:03.841Z,22.47
2019-01-03T06:45:11.819Z,24.30
2019-01-03T06:49:38.035Z,27.20
2019-01-03T06:53:47.892Z,25.30
2019-01-03T07:00:01.928Z,25.47
2019-01-03T07:06:13.712Z,25.93
2019-01-03T07:10:21.769Z,28.37
2019-01-03T07:14:29.968Z,30.93
2019-01-03T07:18:37.776Z,28.63
2019-01-03T07:22:45.750Z,29.63
2019-01-03T07:26:59.492Z,31.17
2019-01-03T07:32:15.176Z,34.13
2019-01-03T07:36:54.502Z,33.77
2019-01-03T07:42:01.268Z,34.87
2019-01-03T07:47:10.885Z,35.90
2019-01-03T07:53:27.527Z,33.43
2019-01-03T07:57:36.323Z,31.57
2019-01-03T08:01:46.201Z,37.53
2019-01-03T08:06:24.407Z,34.00
2019-01-03T08:12:38.867Z,35.80
2019-01-03T08:16:49.597Z,34.27
2019-01-03T08:21:00.527Z,33.90
2019-01-03T08:25:08.251Z,33.77
2019-01-03T08:29:16.355Z,32.33
2019-01-03T08:33:29.180Z,33.07
2019-01-03T08:38:35.063Z,30.83
2019-01-03T08:43:49.905Z,30.73
2019-01-03T08:47:57.761Z,29.23
2019-01-03T08:52:05.802Z,28.93
2019-01-03T08:56:13.788Z,31.37
2019-01-03T09:00:21.910Z,30.07
2019-01-03T09:04:29.695Z,26.77
2019-01-03T09:08:37.673Z,28.77
2019-01-03T09:13:16.988Z,27.17
2019-01-03T09:17:28.747Z,23.60
2019-01-03T09:22:35.382Z,25.63
2019-01-03T09:27:43.167Z,22.80
2019-01-03T09:31:51.075Z,24.90
2019-01-03T09:36:31.237Z,23.63
2019-01-03T09:40:50.386Z,23.13
2019-01-03T09:44:52.870Z,21.93
2019-01-03T09:48:55.241Z,20.97
2019-01-03T09:52:57.636Z,22.13
2019-01-03T09:57:00.043Z,22.00
2019-01-03T10:01:02.370Z,23.77
2019-01-03T10:05:05.365Z,23.90
2019-01-03T10:09:07.771Z,24.27
2019-01-03T10:13:10.154Z,20.77
2019-01-03T10:17:12.515Z,24.73
2019-01-03T10:21:14.891Z,21.70
2019-01-03T10:25:17.327Z,21.10
2019-01-03T10:29:19.690Z,20.97
2019-01-03T10:33:22.036Z,21.60
2019-01-03T10:37:24.436Z,23.17
2019-01-03T10:41:26.786Z,22.90
2019-01-03T10:45:29.142Z,22.87
2019-01-03T10:49:31.487Z,22.53
2019-01-03T10:53:33.820Z,21.97
2019-01-03T10:57:36.126Z,23.53
2019-01-03T11:01:38.471Z,20.33
2019-01-03T11:05:40.948Z,19.27
2019-01-03T11:09:43.321Z,19.20
2019-01-03T11:13:45.671Z,20.03
2019-01-03T11:17:48.037Z,23.80
2019-01-03T11:21:50.415Z,23.80
2019-01-03T11:25:52.740Z,23.20
2019-01-03T11:34:20.531Z,23.53
2019-01-03T11:38:22.935Z,24.03
2019-01-03T11:42:25.321Z,24.20
2019-01-03T11:46:27.719Z,23.77
2019-01-03T11:50:30.074Z,23.97
2019-01-03T11:54:32.510Z,21.10
2019-01-03T11:58:35.052Z,24.87
2019-01-03T12:02:37.570Z,23.07
2019-01-03T12:06:39.975Z,23.97
2019-01-03T12:10:42.504Z,20.23
2019-01-03T12:14:44.910Z,22.80
2019-01-03T12:18:47.290Z,20.97
2019-01-03T12:22:49.674Z,20.47
2019-01-03T12:26:52.014Z,19.73
2019-01-03T12:30:54.410Z,19.90
2019-01-03T12:34:56.755Z,17.77
2019-01-03T12:38:59.054Z,16.07
2019-01-03T12:43:01.450Z,16.33
2019-01-03T12:47:03.848Z,17.47
2019-01-03T12:51:06.212Z,15.03
2019-01-03T12:55:08.600Z,15.93
2019-01-03T12:59:11.008Z,14.50
2019-01-03T13:03:13.380Z,15.57
2019-01-03T13:07:15.809Z,13.67
2019-01-03T13:11:18.729Z,14.40
2019-01-03T13:15:21.046Z,11.13
2019-01-03T13:19:23.404Z,11.30
2019-01-03T13:23:25.775Z,11.97
2019-01-03T13:27:28.131Z,10.50
2019-01-03T13:31:30.613Z,11.80
2019-01-03T13:35:33.208Z,13.27
2019-01-03T13:39:35.515Z,11.37
2019-01-03T13:43:40.603Z,12.47
2019-01-03T13:47:43.277Z,14.83
2019-01-03T13:51:45.660Z,11.97
2019-01-03T13:55:48.019Z,19.27
2019-01-03T13:59:50.393Z,12.90
2019-01-03T14:03:52.768Z,17.43
2019-01-03T14:07:55.135Z,14.43
2019-01-03T14:11:57.432Z,13.17
2019-01-03T14:15:59.761Z,11.50
2019-01-03T14:20:02.101Z,12.10
2019-01-03T14:24:04.462Z,12.17
2019-01-03T14:28:06.820Z,11.43
2019-01-03T14:32:09.170Z,11.23
2019-01-03T14:36:11.612Z,16.17
2019-01-03T14:40:13.954Z,13.63
2019-01-03T14:44:16.313Z,12.50
2019-01-03T14:48:18.697Z,11.37
2019-01-03T14:52:21.162Z,11.20
2019-01-03T14:56:23.583Z,13.10
2019-01-03T15:00:25.952Z,12.57
2019-01-03T15:04:28.263Z,12.13
2019-01-03T15:08:30.702Z,12.07
2019-01-03T15:12:33.130Z,12.27
2019-01-03T15:16:35.474Z,12.67
2019-01-03T15:20:37.856Z,10.20
2019-01-03T15:24:40.202Z,11.13
2019-01-03T15:28:42.583Z,11.27
2019-01-03T15:32:44.952Z,11.27
2019-01-03T15:36:48.348Z,20.13
2019-01-03T15:40:50.738Z,16.60
2019-01-03T15:44:53.094Z,12.93
2019-01-03T15:48:56.583Z,12.87
2019-01-03T15:52:57.890Z,11.70
2019-01-03T15:57:00.211Z,14.37
2019-01-03T16:01:03.212Z,15.23
2019-01-03T16:05:06.078Z,13.27
2019-01-03T16:09:08.450Z,14.00
2019-01-03T16:13:10.854Z,12.60
2019-01-03T16:17:13.174Z,12.30
2019-01-03T16:21:15.637Z,11.83
2019-01-03T16:25:18.048Z,12.30
2019-01-03T16:29:20.412Z,10.47
2019-01-03T16:33:22.776Z,11.50
2019-01-03T16:37:25.189Z,10.17
2019-01-03T16:41:27.594Z,11.47
2019-01-03T16:45:29.964Z,10.13
2019-01-03T16:49:32.359Z,9.77
2019-01-03T16:53:34.731Z,10.87
2019-01-03T16:57:37.084Z,12.27
2019-01-03T17:01:39.451Z,13.93
2019-01-03T17:05:41.899Z,13.40
2019-01-03T17:09:44.331Z,12.27
2019-01-03T17:13:46.686Z,12.77
2019-01-03T17:17:49.058Z,13.63
2019-01-03T17:21:51.393Z,16.75
2019-01-03T17:25:53.796Z,15.10
2019-01-03T17:29:56.183Z,14.50
2019-01-03T17:33:58.558Z,14.80
2019-01-03T17:38:00.947Z,12.40
2019-01-03T17:42:03.369Z,11.80
2019-01-03T17:46:05.784Z,12.37
2019-01-03T17:50:08.846Z,11.23
2019-01-03T17:54:11.208Z,11.33
2019-01-03T17:58:14.632Z,13.83
2019-01-03T18:02:17.083Z,11.77
2019-01-03T18:06:19.526Z,13.37
2019-01-03T18:10:21.933Z,15.00
2019-01-03T18:14:24.443Z,13.93
2019-01-03T18:18:26.822Z,19.40
2019-01-03T18:22:29.277Z,15.97
2019-01-03T18:26:31.846Z,17.63
2019-01-03T18:30:34.315Z,16.77
2019-01-03T18:34:37.097Z,16.23
2019-01-03T18:38:39.563Z,14.57
2019-01-03T18:42:42.008Z,16.57
2019-01-03T18:46:44.382Z,16.83
2019-01-03T18:50:46.761Z,14.00
2019-01-03T18:54:49.182Z,12.63
2019-01-03T18:58:51.536Z,17.23
2019-01-03T19:02:53.892Z,14.43
2019-01-03T19:06:56.239Z,14.20
2019-01-03T19:10:58.664Z,22.77
2019-01-03T19:15:01.061Z,16.40
2019-01-03T19:19:03.473Z,13.20
2019-01-03T19:23:05.810Z,12.47
2019-01-03T19:27:08.966Z,13.33
2019-01-03T19:31:11.591Z,14.80
2019-01-03T19:35:14.031Z,15.37
2019-01-03T19:39:16.437Z,14.40
2019-01-03T19:43:18.807Z,14.70
2019-01-03T19:47:21.192Z,14.97
2019-01-03T19:51:23.645Z,16.47
2019-01-03T19:55:26.150Z,16.17
2019-01-03T19:59:29.421Z,14.43
2019-01-03T20:03:32.585Z,13.37
2019-01-03T20:07:36.030Z,13.63
2019-01-03T20:11:39.406Z,14.40
2019-01-03T20:15:43.467Z,12.57
2019-01-03T20:19:46.054Z,13.37
2019-01-03T20:23:48.480Z,16.80
2019-01-03T20:27:50.902Z,14.83
2019-01-03T20:31:53.372Z,12.67
2019-01-03T20:35:55.794Z,11.20
2019-01-03T20:39:58.242Z,12.20
2019-01-03T20:44:00.603Z,12.33
2019-01-03T20:48:03.282Z,13.60
2019-01-03T20:52:05.702Z,13.87
2019-01-03T20:56:08.121Z,12.70
2019-01-03T21:00:12.475Z,13.50
2019-01-03T21:04:14.895Z,13.07
2019-01-03T21:08:17.530Z,14.17
2019-01-03T21:12:20.042Z,16.37
2019-01-03T21:16:23.219Z,15.60
2019-01-03T21:20:25.606Z,13.33
2019-01-03T21:24:28.009Z,14.37
2019-01-03T21:28:30.505Z,15.30
2019-01-03T21:32:32.938Z,16.10
2019-01-03T21:36:35.330Z,17.47
2019-01-03T21:40:37.751Z,15.07
2019-01-03T21:44:40.166Z,16.60
2019-01-03T21:48:42.566Z,15.17
2019-01-03T21:52:44.932Z,16.47
2019-01-03T21:56:48.174Z,17.93
2019-01-03T22:00:50.039Z,16.37
2019-01-03T22:04:52.425Z,18.37
2019-01-03T22:08:54.811Z,17.63
2019-01-03T22:13:00.198Z,16.67
2019-01-03T22:17:02.584Z,17.00
2019-01-03T22:21:04.908Z,16.93
2019-01-03T22:25:07.640Z,13.90
2019-01-03T22:29:11.119Z,13.63
2019-01-03T22:33:13.598Z,15.53
2019-01-03T22:37:15.897Z,13.20
2019-01-03T22:41:18.286Z,13.40
2019-01-03T22:45:20.754Z,12.13
2019-01-03T22:49:23.161Z,13.40
2019-01-03T22:53:25.578Z,12.13
2019-01-03T22:57:27.956Z,12.73
2019-01-03T23:01:30.355Z,12.67
2019-01-03T23:05:32.705Z,14.13
2019-01-03T23:09:35.156Z,10.43
2019-01-03T23:13:37.494Z,11.07
2019-01-03T23:17:39.840Z,11.27
2019-01-03T23:21:42.278Z,12.03
2019-01-03T23:25:44.650Z,11.20
2019-01-03T23:29:47.008Z,10.50
2019-01-03T23:33:49.367Z,10.77
2019-01-03T23:37:51.923Z,11.90
2019-01-03T23:41:54.263Z,10.97
2019-01-03T23:45:56.618Z,9.77
2019-01-03T23:49:59.247Z,10.70
2019-01-03T23:54:01.633Z,12.07
2019-01-03T23:58:04.018Z,12.30
